sensor_id;sensor_type;location;lat;lon;timestamp;temperature;humidity
21580;DHT22;10951;59.656;9.666;2023-02-01T00:01:14;-1.70;99.90
21580;DHT22;10951;59.656;9.666;2023-02-01T00:03:42;-1.70;99.90
21580;DHT22;10951;59.656;9.666;2023-02-01T00:06:09;-1.70;99.90
21580;DHT22;10951;59.656;9.666;2023-02-01T00:08:36;-1.70;99.90
21580;DHT22;10951;59.656;9.666;2023-02-01T00:11:12;-1.60;99.90
21580;DHT22;10951;59.656;9.666;2023-02-01T00:13:41;-1.60;99.90
21580;DHT22;10951;59.656;9.666;2023-02-01T00:16:10;-1.60;99.90
21580;DHT22;10951;59.656;9.666;2023-02-01T00:18:39;-1.60;99.90
21580;DHT22;10951;59.656;9.666;2023-02-01T00:21:05;-1.60;99.90
21580;DHT22;10951;59.656;9.666;2023-02-01T00:23:34;-1.60;99.90
21580;DHT22;10951;59.656;9.666;2023-02-01T00:26:05;-1.60;99.90
21580;DHT22;10951;59.656;9.666;2023-02-01T00:28:33;-1.60;99.90
21580;DHT22;10951;59.656;9.666;2023-02-01T00:31:01;-1.60;99.90
21580;DHT22;10951;59.656;9.666;2023-02-01T00:33:29;-1.60;99.90
21580;DHT22;10951;59.656;9.666;2023-02-01T00:36:01;-1.60;99.80
21580;DHT22;10951;59.656;9.666;2023-02-01T00:38:29;-1.70;99.80
21580;DHT22;10951;59.656;9.666;2023-02-01T00:41:05;-1.70;99.90
21580;DHT22;10951;59.656;9.666;2023-02-01T00:43:33;-1.70;99.90
21580;DHT22;10951;59.656;9.666;2023-02-01T00:46:00;-1.70;99.90
21580;DHT22;10951;59.656;9.666;2023-02-01T00:48:27;-1.80;99.90
21580;DHT22;10951;59.656;9.666;2023-02-01T00:50:54;-1.70;99.90
21580;DHT22;10951;59.656;9.666;2023-02-01T00:53:21;-1.80;99.90
21580;DHT22;10951;59.656;9.666;2023-02-01T00:55:48;-1.80;99.90
21580;DHT22;10951;59.656;9.666;2023-02-01T00:58:15;-1.80;99.90
21580;DHT22;10951;59.656;9.666;2023-02-01T01:00:42;-1.80;99.90
21580;DHT22;10951;59.656;9.666;2023-02-01T01:03:09;-1.80;99.90
21580;DHT22;10951;59.656;9.666;2023-02-01T01:05:48;-1.90;99.90
21580;DHT22;10951;59.656;9.666;2023-02-01T01:08:16;-1.90;99.90
21580;DHT22;10951;59.656;9.666;2023-02-01T01:10:43;-1.90;99.90
21580;DHT22;10951;59.656;9.666;2023-02-01T01:13:10;-1.90;99.90
21580;DHT22;10951;59.656;9.666;2023-02-01T01:15:40;-1.90;99.90
21580;DHT22;10951;59.656;9.666;2023-02-01T01:18:08;-1.80;99.90
21580;DHT22;10951;59.656;9.666;2023-02-01T01:20:38;-1.80;99.90
21580;DHT22;10951;59.656;9.666;2023-02-01T01:23:06;-1.90;99.90
21580;DHT22;10951;59.656;9.666;2023-02-01T01:25:37;-1.90;99.90
21580;DHT22;10951;59.656;9.666;2023-02-01T01:28:05;-2.00;99.90
21580;DHT22;10951;59.656;9.666;2023-02-01T01:30:34;-2.00;99.90
21580;DHT22;10951;59.656;9.666;2023-02-01T01:33:01;-2.10;99.90
21580;DHT22;10951;59.656;9.666;2023-02-01T01:35:32;-2.00;99.90
21580;DHT22;10951;59.656;9.666;2023-02-01T01:37:59;-1.90;99.90
21580;DHT22;10951;59.656;9.666;2023-02-01T01:40:28;-2.00;99.90
21580;DHT22;10951;59.656;9.666;2023-02-01T01:42:56;-1.90;99.90
21580;DHT22;10951;59.656;9.666;2023-02-01T01:45:27;-1.90;99.90
21580;DHT22;10951;59.656;9.666;2023-02-01T01:47:56;-2.00;99.90
21580;DHT22;10951;59.656;9.666;2023-02-01T01:50:50;-2.00;99.90
21580;DHT22;10951;59.656;9.666;2023-02-01T01:53:26;-2.00;99.90
21580;DHT22;10951;59.656;9.666;2023-02-01T01:55:54;-2.10;99.90
21580;DHT22;10951;59.656;9.666;2023-02-01T01:58:25;-2.10;99.90
21580;DHT22;10951;59.656;9.666;2023-02-01T02:00:53;-1.90;99.90
21580;DHT22;10951;59.656;9.666;2023-02-01T02:03:30;-1.90;99.90
21580;DHT22;10951;59.656;9.666;2023-02-01T02:06:02;-1.80;99.90
21580;DHT22;10951;59.656;9.666;2023-02-01T02:08:30;-1.80;99.90
21580;DHT22;10951;59.656;9.666;2023-02-01T02:10:57;-1.70;99.90
21580;DHT22;10951;59.656;9.666;2023-02-01T02:13:39;-1.70;99.90
21580;DHT22;10951;59.656;9.666;2023-02-01T02:33:47;-1.80;99.90
21580;DHT22;10951;59.656;9.666;2023-02-01T02:41:58;-1.90;99.90
21580;DHT22;10951;59.656;9.666;2023-02-01T02:45:09;-1.90;99.90
21580;DHT22;10951;59.656;9.666;2023-02-01T02:50:44;-1.90;99.90
21580;DHT22;10951;59.656;9.666;2023-02-01T02:53:48;-1.90;99.90
21580;DHT22;10951;59.656;9.666;2023-02-01T02:56:37;-1.90;99.90
21580;DHT22;10951;59.656;9.666;2023-02-01T02:59:25;-1.90;99.90
21580;DHT22;10951;59.656;9.666;2023-02-01T03:02:11;-1.90;99.90
21580;DHT22;10951;59.656;9.666;2023-02-01T03:04:58;-1.80;99.90
21580;DHT22;10951;59.656;9.666;2023-02-01T03:07:59;-1.90;99.90
21580;DHT22;10951;59.656;9.666;2023-02-01T03:13:05;-2.00;99.90
21580;DHT22;10951;59.656;9.666;2023-02-01T03:18:31;-2.20;99.90
21580;DHT22;10951;59.656;9.666;2023-02-01T03:21:02;-2.30;99.90
21580;DHT22;10951;59.656;9.666;2023-02-01T03:23:33;-2.40;99.90
21580;DHT22;10951;59.656;9.666;2023-02-01T03:26:02;-2.40;99.90
21580;DHT22;10951;59.656;9.666;2023-02-01T03:28:32;-2.40;99.90
21580;DHT22;10951;59.656;9.666;2023-02-01T03:31:01;-2.30;99.90
21580;DHT22;10951;59.656;9.666;2023-02-01T03:33:29;-2.20;99.90
21580;DHT22;10951;59.656;9.666;2023-02-01T03:36:42;-2.20;99.90
21580;DHT22;10951;59.656;9.666;2023-02-01T03:42:20;-2.30;99.90
21580;DHT22;10951;59.656;9.666;2023-02-01T03:45:38;-2.40;99.90
21580;DHT22;10951;59.656;9.666;2023-02-01T03:47:48;-2.40;99.90
21580;DHT22;10951;59.656;9.666;2023-02-01T03:50:23;-2.50;99.90
21580;DHT22;10951;59.656;9.666;2023-02-01T03:55:25;-2.60;99.90
21580;DHT22;10951;59.656;9.666;2023-02-01T03:58:09;-2.60;99.90
21580;DHT22;10951;59.656;9.666;2023-02-01T04:00:39;-2.60;99.90
21580;DHT22;10951;59.656;9.666;2023-02-01T04:03:07;-2.70;99.90
21580;DHT22;10951;59.656;9.666;2023-02-01T04:05:35;-2.60;99.90
21580;DHT22;10951;59.656;9.666;2023-02-01T04:08:05;-2.60;99.90
21580;DHT22;10951;59.656;9.666;2023-02-01T04:10:32;-2.50;99.90
21580;DHT22;10951;59.656;9.666;2023-02-01T04:12:59;-2.60;99.90
21580;DHT22;10951;59.656;9.666;2023-02-01T04:15:26;-2.50;99.90
21580;DHT22;10951;59.656;9.666;2023-02-01T04:17:53;-2.40;99.90
21580;DHT22;10951;59.656;9.666;2023-02-01T04:20:19;-2.40;99.90
21580;DHT22;10951;59.656;9.666;2023-02-01T04:22:47;-2.30;99.90
21580;DHT22;10951;59.656;9.666;2023-02-01T04:25:14;-2.30;99.90
21580;DHT22;10951;59.656;9.666;2023-02-01T04:27:40;-2.30;99.90
21580;DHT22;10951;59.656;9.666;2023-02-01T04:30:08;-2.20;99.90
21580;DHT22;10951;59.656;9.666;2023-02-01T04:32:38;-2.00;99.90
21580;DHT22;10951;59.656;9.666;2023-02-01T04:35:06;-1.90;99.90
21580;DHT22;10951;59.656;9.666;2023-02-01T04:37:33;-2.00;99.90
21580;DHT22;10951;59.656;9.666;2023-02-01T04:40:00;-2.10;99.90
21580;DHT22;10951;59.656;9.666;2023-02-01T04:42:28;-2.10;99.90
21580;DHT22;10951;59.656;9.666;2023-02-01T04:44:55;-2.20;99.90
21580;DHT22;10951;59.656;9.666;2023-02-01T04:47:22;-2.10;99.90
21580;DHT22;10951;59.656;9.666;2023-02-01T04:49:49;-2.20;99.90
21580;DHT22;10951;59.656;9.666;2023-02-01T04:52:15;-2.20;99.90
21580;DHT22;10951;59.656;9.666;2023-02-01T04:54:42;-2.20;99.90
21580;DHT22;10951;59.656;9.666;2023-02-01T04:57:09;-2.20;99.90
21580;DHT22;10951;59.656;9.666;2023-02-01T04:59:36;-2.20;99.90
21580;DHT22;10951;59.656;9.666;2023-02-01T05:02:03;-2.20;99.90
21580;DHT22;10951;59.656;9.666;2023-02-01T05:04:30;-2.20;99.90
21580;DHT22;10951;59.656;9.666;2023-02-01T05:06:57;-2.20;99.90
21580;DHT22;10951;59.656;9.666;2023-02-01T05:09:24;-2.30;99.90
21580;DHT22;10951;59.656;9.666;2023-02-01T05:11:51;-2.30;99.90
21580;DHT22;10951;59.656;9.666;2023-02-01T05:14:36;-2.30;99.90
21580;DHT22;10951;59.656;9.666;2023-02-01T05:17:03;-2.20;99.90
21580;DHT22;10951;59.656;9.666;2023-02-01T05:19:29;-2.20;99.90
21580;DHT22;10951;59.656;9.666;2023-02-01T05:21:56;-2.20;99.90
21580;DHT22;10951;59.656;9.666;2023-02-01T05:24:23;-2.20;99.90
21580;DHT22;10951;59.656;9.666;2023-02-01T05:26:50;-2.20;99.90
21580;DHT22;10951;59.656;9.666;2023-02-01T05:29:18;-2.10;99.90
21580;DHT22;10951;59.656;9.666;2023-02-01T05:31:45;-1.90;99.90
21580;DHT22;10951;59.656;9.666;2023-02-01T05:34:12;-1.90;99.90
21580;DHT22;10951;59.656;9.666;2023-02-01T05:36:40;-2.00;99.90
21580;DHT22;10951;59.656;9.666;2023-02-01T05:39:07;-1.90;99.90
21580;DHT22;10951;59.656;9.666;2023-02-01T05:41:34;-1.80;99.90
21580;DHT22;10951;59.656;9.666;2023-02-01T05:44:01;-1.70;99.90
21580;DHT22;10951;59.656;9.666;2023-02-01T05:46:28;-1.70;99.90
21580;DHT22;10951;59.656;9.666;2023-02-01T05:48:55;-1.70;99.90
21580;DHT22;10951;59.656;9.666;2023-02-01T05:51:22;-1.70;99.90
21580;DHT22;10951;59.656;9.666;2023-02-01T05:53:48;-1.80;99.90
21580;DHT22;10951;59.656;9.666;2023-02-01T05:56:15;-1.80;99.90
21580;DHT22;10951;59.656;9.666;2023-02-01T05:58:43;-1.70;99.90
21580;DHT22;10951;59.656;9.666;2023-02-01T06:01:10;-1.70;99.90
21580;DHT22;10951;59.656;9.666;2023-02-01T06:03:37;-1.70;99.90
21580;DHT22;10951;59.656;9.666;2023-02-01T06:06:04;-1.70;99.90
21580;DHT22;10951;59.656;9.666;2023-02-01T06:08:31;-1.60;99.90
21580;DHT22;10951;59.656;9.666;2023-02-01T06:11:04;-1.60;99.90
21580;DHT22;10951;59.656;9.666;2023-02-01T06:13:31;-1.70;99.90
21580;DHT22;10951;59.656;9.666;2023-02-01T06:16:04;-1.70;99.90
21580;DHT22;10951;59.656;9.666;2023-02-01T06:18:34;-1.50;99.90
21580;DHT22;10951;59.656;9.666;2023-02-01T06:21:01;-1.60;99.90
21580;DHT22;10951;59.656;9.666;2023-02-01T06:23:29;-1.60;99.90
21580;DHT22;10951;59.656;9.666;2023-02-01T06:26:05;-1.70;99.90
21580;DHT22;10951;59.656;9.666;2023-02-01T06:28:32;-1.70;99.90
21580;DHT22;10951;59.656;9.666;2023-02-01T06:31:04;-1.70;99.90
21580;DHT22;10951;59.656;9.666;2023-02-01T06:33:34;-1.80;99.90
21580;DHT22;10951;59.656;9.666;2023-02-01T06:36:03;-1.90;99.90
21580;DHT22;10951;59.656;9.666;2023-02-01T06:38:31;-1.90;99.90
21580;DHT22;10951;59.656;9.666;2023-02-01T06:41:01;-1.90;99.90
21580;DHT22;10951;59.656;9.666;2023-02-01T06:43:29;-1.90;99.90
21580;DHT22;10951;59.656;9.666;2023-02-01T06:46:01;-2.00;99.90
21580;DHT22;10951;59.656;9.666;2023-02-01T06:48:29;-2.00;99.90
21580;DHT22;10951;59.656;9.666;2023-02-01T06:50:56;-2.00;99.90
21580;DHT22;10951;59.656;9.666;2023-02-01T06:53:23;-1.90;99.90
21580;DHT22;10951;59.656;9.666;2023-02-01T06:55:55;-1.70;99.90
21580;DHT22;10951;59.656;9.666;2023-02-01T06:58:22;-1.70;99.90
21580;DHT22;10951;59.656;9.666;2023-02-01T07:00:50;-1.70;99.90
21580;DHT22;10951;59.656;9.666;2023-02-01T07:03:17;-1.70;99.90
21580;DHT22;10951;59.656;9.666;2023-02-01T07:05:44;-2.00;99.40
21580;DHT22;10951;59.656;9.666;2023-02-01T07:08:11;-2.40;99.90
21580;DHT22;10951;59.656;9.666;2023-02-01T07:10:38;-2.80;99.90
21580;DHT22;10951;59.656;9.666;2023-02-01T07:13:05;-3.00;99.90
21580;DHT22;10951;59.656;9.666;2023-02-01T07:15:32;-3.20;99.90
21580;DHT22;10951;59.656;9.666;2023-02-01T07:17:58;-3.50;99.90
21580;DHT22;10951;59.656;9.666;2023-02-01T07:20:25;-3.80;99.90
21580;DHT22;10951;59.656;9.666;2023-02-01T07:22:56;-4.20;99.90
21580;DHT22;10951;59.656;9.666;2023-02-01T07:25:24;-4.50;99.90
21580;DHT22;10951;59.656;9.666;2023-02-01T07:27:51;-4.70;99.90
21580;DHT22;10951;59.656;9.666;2023-02-01T07:30:18;-4.70;99.90
21580;DHT22;10951;59.656;9.666;2023-02-01T07:32:45;-4.80;99.90
21580;DHT22;10951;59.656;9.666;2023-02-01T07:35:11;-4.90;99.90
21580;DHT22;10951;59.656;9.666;2023-02-01T07:37:38;-4.90;99.90
21580;DHT22;10951;59.656;9.666;2023-02-01T07:40:06;-4.90;99.90
21580;DHT22;10951;59.656;9.666;2023-02-01T07:42:34;-4.80;99.90
21580;DHT22;10951;59.656;9.666;2023-02-01T07:45:01;-4.80;99.90
21580;DHT22;10951;59.656;9.666;2023-02-01T07:47:46;-4.80;99.90
21580;DHT22;10951;59.656;9.666;2023-02-01T07:50:13;-4.80;99.90
21580;DHT22;10951;59.656;9.666;2023-02-01T07:52:41;-4.90;99.90
21580;DHT22;10951;59.656;9.666;2023-02-01T07:55:09;-4.90;99.90
21580;DHT22;10951;59.656;9.666;2023-02-01T07:57:36;-5.00;99.90
21580;DHT22;10951;59.656;9.666;2023-02-01T08:00:03;-5.00;99.90
21580;DHT22;10951;59.656;9.666;2023-02-01T08:02:50;-5.00;99.90
21580;DHT22;10951;59.656;9.666;2023-02-01T08:05:17;-5.00;99.90
21580;DHT22;10951;59.656;9.666;2023-02-01T08:07:43;-5.10;99.90
21580;DHT22;10951;59.656;9.666;2023-02-01T08:10:10;-5.10;99.90
21580;DHT22;10951;59.656;9.666;2023-02-01T08:12:38;-5.10;99.90
21580;DHT22;10951;59.656;9.666;2023-02-01T08:15:05;-5.00;99.90
21580;DHT22;10951;59.656;9.666;2023-02-01T08:17:32;-4.90;99.90
21580;DHT22;10951;59.656;9.666;2023-02-01T08:19:59;-4.80;99.90
21580;DHT22;10951;59.656;9.666;2023-02-01T08:22:31;-4.80;99.90
21580;DHT22;10951;59.656;9.666;2023-02-01T08:24:58;-4.70;99.90
21580;DHT22;10951;59.656;9.666;2023-02-01T08:27:28;-4.60;99.90
21580;DHT22;10951;59.656;9.666;2023-02-01T08:29:55;-4.50;99.90
21580;DHT22;10951;59.656;9.666;2023-02-01T08:32:22;-4.40;99.90
21580;DHT22;10951;59.656;9.666;2023-02-01T08:34:48;-4.40;99.90
21580;DHT22;10951;59.656;9.666;2023-02-01T08:37:15;-4.30;99.90
21580;DHT22;10951;59.656;9.666;2023-02-01T08:39:42;-4.20;99.90
21580;DHT22;10951;59.656;9.666;2023-02-01T08:42:13;-4.10;99.90
21580;DHT22;10951;59.656;9.666;2023-02-01T08:44:58;-4.00;99.90
21580;DHT22;10951;59.656;9.666;2023-02-01T08:47:25;-3.80;99.90
21580;DHT22;10951;59.656;9.666;2023-02-01T08:49:52;-3.70;99.90
21580;DHT22;10951;59.656;9.666;2023-02-01T08:52:20;-3.70;99.90
21580;DHT22;10951;59.656;9.666;2023-02-01T08:54:47;-3.60;99.90
21580;DHT22;10951;59.656;9.666;2023-02-01T08:57:14;-3.50;99.90
21580;DHT22;10951;59.656;9.666;2023-02-01T08:59:41;-3.40;99.90
21580;DHT22;10951;59.656;9.666;2023-02-01T09:02:15;-3.30;99.90
21580;DHT22;10951;59.656;9.666;2023-02-01T09:04:42;-3.20;99.90
21580;DHT22;10951;59.656;9.666;2023-02-01T09:07:10;-3.10;99.90
21580;DHT22;10951;59.656;9.666;2023-02-01T09:09:37;-3.00;99.90
21580;DHT22;10951;59.656;9.666;2023-02-01T09:12:05;-3.00;99.90
21580;DHT22;10951;59.656;9.666;2023-02-01T09:14:32;-2.90;99.90
21580;DHT22;10951;59.656;9.666;2023-02-01T09:16:59;-2.90;99.90
21580;DHT22;10951;59.656;9.666;2023-02-01T09:19:26;-2.90;99.90
21580;DHT22;10951;59.656;9.666;2023-02-01T09:21:53;-2.90;99.90
21580;DHT22;10951;59.656;9.666;2023-02-01T09:24:20;-2.90;99.90
21580;DHT22;10951;59.656;9.666;2023-02-01T09:26:47;-2.80;99.90
21580;DHT22;10951;59.656;9.666;2023-02-01T09:29:15;-2.80;99.90
21580;DHT22;10951;59.656;9.666;2023-02-01T09:31:42;-2.80;99.90
21580;DHT22;10951;59.656;9.666;2023-02-01T09:34:27;-2.80;99.90
21580;DHT22;10951;59.656;9.666;2023-02-01T09:36:54;-2.90;99.90
21580;DHT22;10951;59.656;9.666;2023-02-01T09:39:21;-2.90;99.90
21580;DHT22;10951;59.656;9.666;2023-02-01T09:41:54;-2.80;99.90
21580;DHT22;10951;59.656;9.666;2023-02-01T09:47:24;-2.60;99.90
21580;DHT22;10951;59.656;9.666;2023-02-01T09:50:11;-2.70;99.90
21580;DHT22;10951;59.656;9.666;2023-02-01T09:52:48;-2.60;99.90
21580;DHT22;10951;59.656;9.666;2023-02-01T09:55:49;-2.60;99.90
21580;DHT22;10951;59.656;9.666;2023-02-01T09:58:19;-2.50;99.90
21580;DHT22;10951;59.656;9.666;2023-02-01T10:00:57;-2.40;99.90
21580;DHT22;10951;59.656;9.666;2023-02-01T10:03:29;-2.30;99.90
21580;DHT22;10951;59.656;9.666;2023-02-01T10:08:46;-2.20;99.90
21580;DHT22;10951;59.656;9.666;2023-02-01T10:11:35;-2.20;99.90
21580;DHT22;10951;59.656;9.666;2023-02-01T10:22:41;-2.10;99.90
21580;DHT22;10951;59.656;9.666;2023-02-01T10:25:43;-2.00;99.90
21580;DHT22;10951;59.656;9.666;2023-02-01T10:28:15;-2.00;99.90
21580;DHT22;10951;59.656;9.666;2023-02-01T10:30:47;-1.90;99.90
21580;DHT22;10951;59.656;9.666;2023-02-01T10:33:18;-1.90;99.90
21580;DHT22;10951;59.656;9.666;2023-02-01T10:35:53;-1.80;99.90
21580;DHT22;10951;59.656;9.666;2023-02-01T10:38:30;-1.80;99.90
21580;DHT22;10951;59.656;9.666;2023-02-01T10:41:03;-1.80;99.90
21580;DHT22;10951;59.656;9.666;2023-02-01T10:43:30;-1.70;99.90
21580;DHT22;10951;59.656;9.666;2023-02-01T10:45:58;-1.50;99.90
21580;DHT22;10951;59.656;9.666;2023-02-01T10:48:25;-1.50;99.90
21580;DHT22;10951;59.656;9.666;2023-02-01T10:51:00;-1.50;99.90
21580;DHT22;10951;59.656;9.666;2023-02-01T10:56:11;-1.20;99.90
21580;DHT22;10951;59.656;9.666;2023-02-01T10:58:48;-1.10;99.90
21580;DHT22;10951;59.656;9.666;2023-02-01T11:01:21;-1.10;99.90
21580;DHT22;10951;59.656;9.666;2023-02-01T11:03:53;-1.10;99.90
21580;DHT22;10951;59.656;9.666;2023-02-01T11:06:31;-1.10;99.90
21580;DHT22;10951;59.656;9.666;2023-02-01T11:11:35;-1.10;99.90
21580;DHT22;10951;59.656;9.666;2023-02-01T11:16:55;-1.30;99.90
21580;DHT22;10951;59.656;9.666;2023-02-01T11:19:23;-1.20;99.90
21580;DHT22;10951;59.656;9.666;2023-02-01T11:21:57;-1.20;99.90
21580;DHT22;10951;59.656;9.666;2023-02-01T11:24:28;-1.20;99.90
21580;DHT22;10951;59.656;9.666;2023-02-01T11:26:57;-1.30;99.90
21580;DHT22;10951;59.656;9.666;2023-02-01T11:29:26;-1.30;99.90
21580;DHT22;10951;59.656;9.666;2023-02-01T11:31:59;-1.30;99.90
21580;DHT22;10951;59.656;9.666;2023-02-01T11:34:45;-1.30;99.90
21580;DHT22;10951;59.656;9.666;2023-02-01T11:37:22;-1.30;99.90
21580;DHT22;10951;59.656;9.666;2023-02-01T11:43:40;-1.30;99.90
21580;DHT22;10951;59.656;9.666;2023-02-01T11:45:55;-1.20;99.90
21580;DHT22;10951;59.656;9.666;2023-02-01T11:48:25;-1.20;99.90
21580;DHT22;10951;59.656;9.666;2023-02-01T12:02:15;-1.40;99.90
21580;DHT22;10951;59.656;9.666;2023-02-01T12:13:34;-1.30;99.90
21580;DHT22;10951;59.656;9.666;2023-02-01T12:16:19;-1.20;99.90
21580;DHT22;10951;59.656;9.666;2023-02-01T12:27:26;-1.10;99.90
21580;DHT22;10951;59.656;9.666;2023-02-01T12:30:25;-1.10;99.90
21580;DHT22;10951;59.656;9.666;2023-02-01T12:33:17;-1.20;99.90
21580;DHT22;10951;59.656;9.666;2023-02-01T12:38:49;-1.20;99.90
21580;DHT22;10951;59.656;9.666;2023-02-01T12:41:40;-1.20;99.90
21580;DHT22;10951;59.656;9.666;2023-02-01T12:44:33;-1.10;99.90
21580;DHT22;10951;59.656;9.666;2023-02-01T12:47:20;-1.10;99.80
21580;DHT22;10951;59.656;9.666;2023-02-01T12:49:52;-1.10;99.90
21580;DHT22;10951;59.656;9.666;2023-02-01T12:55:01;-1.00;99.30
21580;DHT22;10951;59.656;9.666;2023-02-01T12:57:37;-1.00;99.10
21580;DHT22;10951;59.656;9.666;2023-02-01T13:00:25;-1.00;99.00
21580;DHT22;10951;59.656;9.666;2023-02-01T13:03:20;-1.10;98.80
21580;DHT22;10951;59.656;9.666;2023-02-01T13:08:26;-1.20;98.50
21580;DHT22;10951;59.656;9.666;2023-02-01T13:11:09;-1.30;98.90
21580;DHT22;10951;59.656;9.666;2023-02-01T13:16:45;-1.50;99.50
21580;DHT22;10951;59.656;9.666;2023-02-01T13:19:27;-1.60;99.80
21580;DHT22;10951;59.656;9.666;2023-02-01T13:22:02;-1.60;99.90
21580;DHT22;10951;59.656;9.666;2023-02-01T13:24:41;-1.70;99.90
21580;DHT22;10951;59.656;9.666;2023-02-01T13:27:16;-1.70;99.90
21580;DHT22;10951;59.656;9.666;2023-02-01T13:35:50;-1.70;99.70
21580;DHT22;10951;59.656;9.666;2023-02-01T13:41:57;-1.70;99.90
21580;DHT22;10951;59.656;9.666;2023-02-01T13:46:57;-1.70;99.50
21580;DHT22;10951;59.656;9.666;2023-02-01T13:49:36;-1.70;99.50
21580;DHT22;10951;59.656;9.666;2023-02-01T13:52:04;-1.80;99.50
21580;DHT22;10951;59.656;9.666;2023-02-01T13:54:37;-2.00;99.80
21580;DHT22;10951;59.656;9.666;2023-02-01T13:57:30;-2.10;99.90
21580;DHT22;10951;59.656;9.666;2023-02-01T14:00:23;-2.10;99.90
21580;DHT22;10951;59.656;9.666;2023-02-01T14:26:52;-2.10;99.40
21580;DHT22;10951;59.656;9.666;2023-02-01T14:29:30;-2.00;99.00
21580;DHT22;10951;59.656;9.666;2023-02-01T14:32:16;-2.00;99.00
21580;DHT22;10951;59.656;9.666;2023-02-01T15:04:04;-2.50;99.60
21580;DHT22;10951;59.656;9.666;2023-02-01T15:06:43;-2.50;99.50
21580;DHT22;10951;59.656;9.666;2023-02-01T15:09:42;-2.60;99.80
21580;DHT22;10951;59.656;9.666;2023-02-01T15:14:48;-2.70;99.90
21580;DHT22;10951;59.656;9.666;2023-02-01T15:17:30;-2.70;99.90
21580;DHT22;10951;59.656;9.666;2023-02-01T15:20:13;-2.80;99.90
21580;DHT22;10951;59.656;9.666;2023-02-01T15:22:56;-2.80;99.90
21580;DHT22;10951;59.656;9.666;2023-02-01T15:27:52;-2.90;99.90
21580;DHT22;10951;59.656;9.666;2023-02-01T15:30:31;-2.90;99.90
21580;DHT22;10951;59.656;9.666;2023-02-01T15:33:16;-3.00;99.90
21580;DHT22;10951;59.656;9.666;2023-02-01T15:35:45;-3.00;99.90
21580;DHT22;10951;59.656;9.666;2023-02-01T15:46:23;-3.10;99.90
21580;DHT22;10951;59.656;9.666;2023-02-01T15:48:53;-3.10;99.90
21580;DHT22;10951;59.656;9.666;2023-02-01T15:51:22;-3.00;99.90
21580;DHT22;10951;59.656;9.666;2023-02-01T15:53:56;-3.10;99.90
21580;DHT22;10951;59.656;9.666;2023-02-01T15:56:27;-3.10;99.90
21580;DHT22;10951;59.656;9.666;2023-02-01T15:58:58;-3.00;99.90
21580;DHT22;10951;59.656;9.666;2023-02-01T16:01:25;-3.00;99.90
21580;DHT22;10951;59.656;9.666;2023-02-01T16:06:48;-3.10;99.90
21580;DHT22;10951;59.656;9.666;2023-02-01T16:09:18;-3.10;99.90
21580;DHT22;10951;59.656;9.666;2023-02-01T16:11:54;-3.00;99.90
21580;DHT22;10951;59.656;9.666;2023-02-01T16:14:22;-3.10;99.90
21580;DHT22;10951;59.656;9.666;2023-02-01T16:16:49;-3.10;99.90
21580;DHT22;10951;59.656;9.666;2023-02-01T16:19:16;-3.20;99.90
21580;DHT22;10951;59.656;9.666;2023-02-01T16:21:43;-3.20;99.90
21580;DHT22;10951;59.656;9.666;2023-02-01T16:24:10;-3.30;99.90
21580;DHT22;10951;59.656;9.666;2023-02-01T16:26:37;-3.40;99.90
21580;DHT22;10951;59.656;9.666;2023-02-01T16:29:05;-3.30;99.90
21580;DHT22;10951;59.656;9.666;2023-02-01T16:31:38;-3.30;99.90
21580;DHT22;10951;59.656;9.666;2023-02-01T16:34:05;-3.20;99.90
21580;DHT22;10951;59.656;9.666;2023-02-01T16:36:33;-3.30;99.90
21580;DHT22;10951;59.656;9.666;2023-02-01T16:39:00;-3.40;99.90
21580;DHT22;10951;59.656;9.666;2023-02-01T16:41:29;-3.40;99.90
21580;DHT22;10951;59.656;9.666;2023-02-01T16:43:56;-3.50;99.90
21580;DHT22;10951;59.656;9.666;2023-02-01T16:46:25;-3.50;99.90
21580;DHT22;10951;59.656;9.666;2023-02-01T16:48:56;-3.50;99.90
21580;DHT22;10951;59.656;9.666;2023-02-01T16:51:26;-3.50;99.90
21580;DHT22;10951;59.656;9.666;2023-02-01T16:53:54;-3.60;99.90
21580;DHT22;10951;59.656;9.666;2023-02-01T16:56:29;-3.60;99.90
21580;DHT22;10951;59.656;9.666;2023-02-01T16:58:57;-3.70;99.90
21580;DHT22;10951;59.656;9.666;2023-02-01T17:01:24;-3.80;99.90
21580;DHT22;10951;59.656;9.666;2023-02-01T17:03:51;-3.80;99.90
21580;DHT22;10951;59.656;9.666;2023-02-01T17:06:23;-3.90;99.90
21580;DHT22;10951;59.656;9.666;2023-02-01T17:08:56;-3.90;99.90
21580;DHT22;10951;59.656;9.666;2023-02-01T17:11:27;-3.90;99.90
21580;DHT22;10951;59.656;9.666;2023-02-01T17:14:01;-3.90;99.90
21580;DHT22;10951;59.656;9.666;2023-02-01T17:16:36;-3.90;99.90
21580;DHT22;10951;59.656;9.666;2023-02-01T17:19:11;-4.00;99.90
21580;DHT22;10951;59.656;9.666;2023-02-01T17:21:41;-4.00;99.90
21580;DHT22;10951;59.656;9.666;2023-02-01T17:24:13;-4.00;99.90
21580;DHT22;10951;59.656;9.666;2023-02-01T17:26:42;-4.00;99.90
21580;DHT22;10951;59.656;9.666;2023-02-01T17:29:12;-4.00;99.90
21580;DHT22;10951;59.656;9.666;2023-02-01T17:31:43;-4.00;99.90
21580;DHT22;10951;59.656;9.666;2023-02-01T17:34:11;-4.10;99.90
21580;DHT22;10951;59.656;9.666;2023-02-01T17:36:42;-4.00;99.90
21580;DHT22;10951;59.656;9.666;2023-02-01T17:39:10;-4.00;99.90
21580;DHT22;10951;59.656;9.666;2023-02-01T17:41:37;-4.10;99.90
21580;DHT22;10951;59.656;9.666;2023-02-01T17:44:04;-4.10;99.90
21580;DHT22;10951;59.656;9.666;2023-02-01T17:46:31;-4.20;99.90
21580;DHT22;10951;59.656;9.666;2023-02-01T17:48:58;-4.20;99.90
21580;DHT22;10951;59.656;9.666;2023-02-01T17:51:26;-4.30;99.90
21580;DHT22;10951;59.656;9.666;2023-02-01T17:53:54;-4.20;99.90
21580;DHT22;10951;59.656;9.666;2023-02-01T17:56:23;-4.30;99.90
21580;DHT22;10951;59.656;9.666;2023-02-01T17:58:50;-4.40;99.90
21580;DHT22;10951;59.656;9.666;2023-02-01T18:01:23;-4.30;99.90
21580;DHT22;10951;59.656;9.666;2023-02-01T18:03:50;-4.40;99.90
21580;DHT22;10951;59.656;9.666;2023-02-01T18:06:20;-4.50;99.90
21580;DHT22;10951;59.656;9.666;2023-02-01T18:08:48;-4.50;99.90
21580;DHT22;10951;59.656;9.666;2023-02-01T18:11:20;-4.50;99.90
21580;DHT22;10951;59.656;9.666;2023-02-01T18:13:48;-4.60;99.90
21580;DHT22;10951;59.656;9.666;2023-02-01T18:16:26;-4.70;99.90
21580;DHT22;10951;59.656;9.666;2023-02-01T18:18:53;-4.70;99.90
21580;DHT22;10951;59.656;9.666;2023-02-01T18:21:21;-4.70;99.90
21580;DHT22;10951;59.656;9.666;2023-02-01T18:23:49;-4.80;99.90
21580;DHT22;10951;59.656;9.666;2023-02-01T18:26:17;-4.80;99.90
21580;DHT22;10951;59.656;9.666;2023-02-01T18:28:44;-4.70;99.90
21580;DHT22;10951;59.656;9.666;2023-02-01T18:31:20;-4.70;99.90
21580;DHT22;10951;59.656;9.666;2023-02-01T18:33:49;-4.90;99.90
21580;DHT22;10951;59.656;9.666;2023-02-01T18:36:16;-4.90;99.90
21580;DHT22;10951;59.656;9.666;2023-02-01T18:38:43;-5.00;99.90
21580;DHT22;10951;59.656;9.666;2023-02-01T18:41:13;-5.00;99.90
21580;DHT22;10951;59.656;9.666;2023-02-01T18:43:43;-5.00;99.90
21580;DHT22;10951;59.656;9.666;2023-02-01T18:46:11;-5.00;99.90
21580;DHT22;10951;59.656;9.666;2023-02-01T18:48:39;-5.00;99.90
21580;DHT22;10951;59.656;9.666;2023-02-01T18:51:12;-5.00;99.90
21580;DHT22;10951;59.656;9.666;2023-02-01T18:53:39;-5.00;99.90
21580;DHT22;10951;59.656;9.666;2023-02-01T18:56:08;-5.10;99.90
21580;DHT22;10951;59.656;9.666;2023-02-01T18:58:36;-5.20;99.90
21580;DHT22;10951;59.656;9.666;2023-02-01T19:01:08;-5.30;99.90